Terminal Aerodrome Forecast
Issued by NWS Jacksonville, FL

Home | Current Version | Previous Version | Text Only | Print | Product List | Glossary On
Versions: 1 2 3 4 5 6 7 8 9 10 11 12 13 14 15 16
000
FTUS42 KJAX 241737
TAFJAX
TAF
KJAX 241737Z 2418/2518 06014G22KT P6SM SCT035
     FM250000 03006KT P6SM SCT020
     FM250900 03006KT P6SM VCSH SCT015 BKN025
     FM251500 05011KT P6SM VCSH SCT025 BKN035=

USA.gov is the U.S. government's official web portal to all federal, state and local government web resources and services.